Time;durP1;ratioP1;P1;durP2;ratioP2;P2;SDS_P1;SDS_P2;PMS_P1;PMS_P2;Temp;Humidity;BMP_temperature;BMP_pressure;BME280_temperature;BME280_humidity;BME280_pressure;Samples;Min_cycle;Max_cycle;Signal;HPM_P1;HPM_P2
2023/10/01 00:00:28;;;;;;;;;21.00;17.33;;;;;18.44;64.83;102075.88;5079459;28;46162;-43
2023/10/01 00:02:55;;;;;;;;;26.00;19.67;;;;;18.43;64.87;102077.75;5079663;27;45265;-43
2023/10/01 00:05:23;;;;;;;;;21.75;18.25;;;;;18.43;64.69;102079.59;5061516;28;45232;-43
2023/10/01 00:07:51;;;;;;;;;22.33;17.67;;;;;18.26;64.83;102067.94;5079554;27;45324;-43
2023/10/01 00:10:17;;;;;;;;;18.33;18.00;;;;;18.33;65.16;102071.69;5079405;27;47232;-43
2023/10/01 00:12:47;;;;;;;;;24.33;15.67;;;;;18.32;65.00;102074.50;5079403;27;45264;-43
2023/10/01 00:15:18;;;;;;;;;26.50;19.25;;;;;18.33;65.09;102082.44;5079425;27;45347;-43
2023/10/01 00:17:46;;;;;;;;;22.50;16.75;;;;;18.31;65.42;102080.91;5079736;28;45331;-43
2023/10/01 00:20:20;;;;;;;;;17.50;16.25;;;;;18.28;65.36;102081.25;5079058;27;46324;-42
2023/10/01 00:22:47;;;;;;;;;27.00;20.33;;;;;18.24;65.53;102082.56;5079273;28;45352;-43
2023/10/01 00:25:13;;;;;;;;;25.00;18.75;;;;;18.15;65.45;102073.63;5079222;28;45463;-42
2023/10/01 00:27:38;;;;;;;;;22.75;17.75;;;;;18.19;65.62;102081.22;5079238;28;45374;-43
2023/10/01 00:30:09;;;;;;;;;19.25;14.00;;;;;18.18;65.57;102079.53;5078948;28;46630;-43
2023/10/01 00:32:35;;;;;;;;;25.33;16.00;;;;;18.05;65.75;102067.56;5078004;28;45359;-43
2023/10/01 00:35:03;;;;;;;;;23.25;14.25;;;;;18.11;65.82;102081.19;5079276;28;45305;-43
2023/10/01 00:37:28;;;;;;;;;19.00;14.00;;;;;18.06;66.10;102070.06;5079083;27;45292;-42
2023/10/01 00:39:54;;;;;;;;;22.00;16.67;;;;;18.05;66.20;102081.84;5078900;28;45326;-42
2023/10/01 00:42:25;;;;;;;;;17.67;16.33;;;;;18.03;66.10;102077.63;5079050;28;45251;-43
2023/10/01 00:44:51;;;;;;;;;22.33;16.33;;;;;17.93;66.12;102057.06;5078515;28;45341;-43
2023/10/01 00:47:18;;;;;;;;;22.00;16.00;;;;;17.99;66.21;102068.19;5079034;28;45446;-42
2023/10/01 00:49:46;;;;;;;;;21.67;14.33;;;;;17.98;66.51;102066.50;5078900;27;45322;-43
2023/10/01 00:52:13;;;;;;;;;22.25;16.25;;;;;17.90;66.42;102064.63;5078676;28;45351;-43
2023/10/01 00:54:38;;;;;;;;;20.00;15.33;;;;;17.93;66.66;102061.63;5077757;27;45433;-42
2023/10/01 00:57:04;;;;;;;;;20.00;15.00;;;;;17.92;66.45;102054.56;5078979;28;45451;-43
2023/10/01 00:59:32;;;;;;;;;24.33;16.00;;;;;17.91;66.52;102063.66;5078703;28;47059;-42
2023/10/01 01:01:58;;;;;;;;;24.00;18.67;;;;;17.87;66.60;102059.59;5078465;28;45259;-43
2023/10/01 01:04:24;;;;;;;;;20.00;17.33;;;;;17.87;66.64;102052.34;5078594;28;45231;-42
2023/10/01 01:06:52;;;;;;;;;17.00;15.33;;;;;17.80;66.89;102034.31;5078624;28;45308;-43
2023/10/01 01:09:20;;;;;;;;;19.00;14.00;;;;;17.86;66.70;102047.13;5078595;27;47113;-43
2023/10/01 01:11:48;;;;;;;;;23.67;16.33;;;;;17.84;66.79;102049.13;5078291;27;45453;-43
2023/10/01 01:14:14;;;;;;;;;23.33;16.00;;;;;17.83;66.98;102056.38;5078565;28;45377;-42
2023/10/01 01:16:40;;;;;;;;;18.67;15.33;;;;;17.82;66.83;102048.44;5078383;27;45399;-43
2023/10/01 01:19:09;;;;;;;;;15.33;14.00;;;;;17.78;66.90;102045.25;5078218;28;46293;-42
2023/10/01 01:21:34;;;;;;;;;18.33;15.00;;;;;17.75;66.99;102053.66;5078438;27;45245;-44
2023/10/01 01:24:02;;;;;;;;;22.00;16.67;;;;;17.74;67.11;102046.59;5060114;27;45372;-42
2023/10/01 01:26:29;;;;;;;;;20.67;14.00;;;;;17.71;66.94;102047.72;5078411;27;45475;-43
2023/10/01 01:28:54;;;;;;;;;18.00;14.67;;;;;17.70;67.26;102040.66;5078325;27;45557;-43
2023/10/01 01:31:26;;;;;;;;;20.33;14.67;;;;;17.58;66.87;102011.50;5078169;27;45491;-43
2023/10/01 01:33:55;;;;;;;;;22.00;14.67;;;;;17.66;67.27;102033.91;5078286;28;45449;-43
2023/10/01 01:36:21;;;;;;;;;19.67;15.00;;;;;17.63;67.25;102028.00;5078359;27;45316;-43
2023/10/01 01:39:12;;;;;;;;;15.33;14.00;;;;;17.59;67.17;102026.63;5078224;28;45962;-43
2023/10/01 01:41:47;;;;;;;;;21.00;15.67;;;;;17.57;67.44;102013.34;5077977;28;45439;-43
2023/10/01 01:44:14;;;;;;;;;18.00;15.00;;;;;17.48;67.66;102008.06;5077991;27;45449;-42
2023/10/01 01:46:49;;;;;;;;;23.00;16.00;;;;;17.48;67.58;102016.16;5077757;28;45398;-44
2023/10/01 01:49:18;;;;;;;;;15.00;14.67;;;;;17.44;67.67;102016.50;5078030;28;45388;-42
2023/10/01 01:51:57;;;;;;;;;22.00;16.33;;;;;17.42;68.03;102010.41;5077650;28;45358;-44
2023/10/01 01:54:29;;;;;;;;;12.33;7.67;;;;;17.40;67.73;102008.88;5077873;27;45279;-44
2023/10/01 01:56:58;;;;;;;;;18.67;16.00;;;;;17.37;68.16;102010.06;5077588;27;45546;-43
2023/10/01 01:59:27;;;;;;;;;24.00;16.67;;;;;17.20;68.38;101993.00;5077674;28;46909;-43
2023/10/01 02:01:52;;;;;;;;;19.33;15.33;;;;;17.30;68.44;102009.00;5059759;28;45468;-42
2023/10/01 02:04:18;;;;;;;;;16.67;15.67;;;;;17.28;68.62;102012.88;5076709;27;45326;-42
2023/10/01 02:06:45;;;;;;;;;15.67;14.67;;;;;17.28;68.32;102016.41;5077950;27;45359;-44
2023/10/01 02:09:19;;;;;;;;;21.00;18.00;;;;;17.25;68.39;102014.03;5077570;28;47018;-43
2023/10/01 02:11:49;;;;;;;;;22.33;16.00;;;;;17.25;68.46;102011.34;5077442;28;45473;-43
2023/10/01 02:14:30;;;;;;;;;18.67;15.33;;;;;17.23;68.66;102004.41;5077391;27;45371;-43
2023/10/01 02:17:15;;;;;;;;;15.33;13.00;;;;;17.25;68.37;102022.09;5077623;28;45437;-43
2023/10/01 02:19:46;;;;;;;;;19.67;14.67;;;;;17.24;68.60;102016.88;5077394;27;46232;-42
2023/10/01 02:22:12;;;;;;;;;15.33;14.00;;;;;17.25;68.74;102019.41;5076483;28;45178;-43
2023/10/01 02:27:06;;;;;;;;;21.00;15.67;;;;;17.21;68.73;102020.72;5077560;28;45405;-43
2023/10/01 02:29:32;;;;;;;;;20.33;15.67;;;;;17.20;68.90;102019.03;5059310;28;45333;-43
2023/10/01 02:32:04;;;;;;;;;22.67;16.00;;;;;17.21;69.00;102013.50;5077385;28;45369;-43
2023/10/01 02:34:31;;;;;;;;;21.00;16.67;;;;;17.17;69.01;102017.50;5077338;28;45209;-43
2023/10/01 02:36:58;;;;;;;;;28.00;19.00;;;;;17.13;68.83;102004.53;5077306;27;45453;-43
2023/10/01 02:39:27;;;;;;;;;26.00;17.00;;;;;17.15;69.23;102024.03;5077225;27;46084;-43
2023/10/01 02:44:35;;;;;;;;;16.67;14.00;;;;;17.10;69.33;102023.66;5077401;28;45361;-42
2023/10/01 02:47:09;;;;;;;;;21.67;16.00;;;;;17.06;69.53;102019.59;5077297;28;45424;-42
2023/10/01 02:49:48;;;;;;;;;19.33;16.00;;;;;17.06;69.43;102015.06;5077045;28;46171;-42
2023/10/01 02:52:18;;;;;;;;;20.33;19.00;;;;;17.07;69.43;102021.31;5076825;28;45387;-42
2023/10/01 02:54:44;;;;;;;;;18.67;13.33;;;;;17.07;69.14;102016.78;5077220;27;45299;-43
2023/10/01 02:57:12;;;;;;;;;21.00;17.00;;;;;17.07;69.33;102013.25;5079948;27;45306;-42
2023/10/01 03:02:30;;;;;;;;;21.00;16.67;;;;;17.01;69.03;102003.13;5080673;28;45437;-43
2023/10/01 03:05:01;;;;;;;;;23.67;17.00;;;;;17.02;69.14;102011.00;5080709;28;45307;-43
2023/10/01 03:07:32;;;;;;;;;19.67;15.67;;;;;16.92;69.59;102005.75;5080655;28;45407;-42
2023/10/01 03:10:00;;;;;;;;;15.00;12.00;;;;;16.97;69.43;102013.34;5080296;27;46368;-43
2023/10/01 03:12:34;;;;;;;;;19.67;17.00;;;;;16.82;69.55;101993.41;5080359;27;45513;-42
2023/10/01 03:17:41;;;;;;;;;24.00;14.67;;;;;16.89;69.67;102005.22;5080590;28;45383;-42
2023/10/01 03:22:57;;;;;;;;;15.67;13.00;;;;;16.85;69.63;102007.38;4997986;28;45386;-43
2023/10/01 03:25:28;;;;;;;;;18.67;15.00;;;;;16.82;69.52;102010.38;4997922;28;45445;-42
2023/10/01 03:28:01;;;;;;;;;21.67;15.67;;;;;16.79;69.49;102009.84;4997933;28;45428;-43
2023/10/01 03:30:32;;;;;;;;;16.00;15.33;;;;;16.76;69.78;102013.69;4997772;28;47130;-43
2023/10/01 03:33:08;;;;;;;;;22.67;15.33;;;;;16.71;69.83;102013.28;4997794;28;45681;-43
2023/10/01 03:35:36;;;;;;;;;22.00;13.33;;;;;16.67;69.84;102007.38;4997957;28;45397;-42
2023/10/01 03:38:10;;;;;;;;;21.00;14.00;;;;;16.61;69.87;102002.63;4997732;28;45565;-42
2023/10/01 03:40:57;;;;;;;;;25.67;15.00;;;;;16.63;69.99;102011.38;4997639;28;46127;-42
2023/10/01 03:43:32;;;;;;;;;28.00;16.00;;;;;16.58;70.35;102013.69;4997548;28;45287;-43
2023/10/01 03:48:57;;;;;;;;;17.00;14.33;;;;;16.50;70.22;102002.03;4997668;28;45304;-43
2023/10/01 03:51:52;;;;;;;;;25.00;17.00;;;;;16.54;70.66;102001.56;4997523;28;46467;-42
2023/10/01 03:54:19;;;;;;;;;27.00;17.33;;;;;16.48;70.80;101996.81;4997157;28;45484;-42
2023/10/01 03:56:55;;;;;;;;;21.33;19.33;;;;;16.53;70.67;101989.13;4997498;28;45515;-43
2023/10/01 03:59:21;;;;;;;;;19.67;16.67;;;;;16.56;70.86;101987.97;5013123;28;45311;-43
2023/10/01 04:01:58;;;;;;;;;24.67;17.67;;;;;16.57;70.45;101987.00;5041194;28;46275;-41
2023/10/01 04:04:27;;;;;;;;;19.33;17.67;;;;;16.55;70.54;101992.50;5059517;28;45359;-42
2023/10/01 04:06:56;;;;;;;;;21.33;16.67;;;;;16.54;70.63;101987.28;5058343;28;45432;-43
2023/10/01 04:09:26;;;;;;;;;15.67;12.33;;;;;16.50;70.59;101994.81;5059078;28;45453;-42
2023/10/01 04:12:18;;;;;;;;;20.00;18.00;;;;;16.46;70.72;101983.53;5059039;28;45372;-43
2023/10/01 04:14:48;;;;;;;;;15.67;13.00;;;;;16.44;70.82;101987.38;5059003;28;45434;-42
2023/10/01 04:17:17;;;;;;;;;20.00;16.67;;;;;16.44;71.19;101987.38;5059032;28;45436;-43
2023/10/01 04:19:43;;;;;;;;;20.33;16.67;;;;;16.41;71.04;101987.69;5059540;28;45301;-43
2023/10/01 04:22:09;;;;;;;;;23.00;16.00;;;;;16.40;71.36;101977.94;5059062;28;46254;-42
2023/10/01 04:24:36;;;;;;;;;21.00;16.00;;;;;16.42;71.43;101992.06;5059204;28;45429;-43
2023/10/01 04:27:18;;;;;;;;;23.33;16.67;;;;;16.40;71.37;101994.06;5059154;28;45314;-42
2023/10/01 04:29:57;;;;;;;;;18.33;16.67;;;;;16.41;71.64;101990.38;5059136;28;45325;-42
2023/10/01 04:32:27;;;;;;;;;22.67;16.33;;;;;16.39;71.50;101995.91;5058679;28;45321;-43
2023/10/01 04:35:17;;;;;;;;;23.00;17.33;;;;;16.35;71.40;101990.97;5058850;28;45241;-43
2023/10/01 04:37:43;;;;;;;;;26.00;19.00;;;;;16.33;71.56;101984.91;5070916;28;45382;-43
2023/10/01 04:42:56;;;;;;;;;23.67;19.33;;;;;16.32;71.91;101994.81;5078849;28;45442;-42
2023/10/01 04:45:24;;;;;;;;;24.00;19.00;;;;;16.29;71.96;101991.59;5079107;28;45220;-42
2023/10/01 04:47:55;;;;;;;;;20.67;17.00;;;;;16.27;72.10;101994.44;5078978;28;45205;-43
2023/10/01 04:50:29;;;;;;;;;22.00;15.67;;;;;16.26;71.78;101992.72;5079272;28;45446;-42
2023/10/01 04:52:58;;;;;;;;;25.00;19.00;;;;;16.24;72.22;101989.38;5078461;28;46924;-43
2023/10/01 04:55:28;;;;;;;;;18.67;16.00;;;;;16.14;72.30;101978.72;5078904;28;45362;-43
2023/10/01 04:57:59;;;;;;;;;19.33;16.00;;;;;16.24;72.26;101999.28;5078849;27;45303;-44
2023/10/01 05:00:25;;;;;;;;;20.67;14.00;;;;;16.23;72.50;101997.59;5079179;28;45150;-44
2023/10/01 05:02:52;;;;;;;;;18.33;17.67;;;;;16.23;72.37;102000.28;5078586;28;45967;-44
2023/10/01 05:05:26;;;;;;;;;26.33;17.33;;;;;16.20;72.20;101993.38;5078506;27;45344;-43
2023/10/01 05:07:56;;;;;;;;;21.33;15.00;;;;;16.20;72.47;101996.06;5079269;28;45577;-44
2023/10/01 05:10:22;;;;;;;;;27.33;17.00;;;;;16.19;73.03;101997.91;5079642;27;45253;-44
2023/10/01 05:12:54;;;;;;;;;21.67;19.33;;;;;16.14;72.70;101992.16;5078789;28;46122;-43
2023/10/01 05:15:34;;;;;;;;;19.67;17.00;;;;;16.15;72.71;102004.56;5078418;28;45319;-44
2023/10/01 05:18:01;;;;;;;;;20.33;14.67;;;;;16.11;72.66;102000.50;5078633;28;45244;-43
2023/10/01 05:20:26;;;;;;;;;22.67;19.00;;;;;16.10;73.04;101992.59;5078430;28;45480;-43
2023/10/01 05:22:54;;;;;;;;;23.00;16.33;;;;;16.14;72.53;101996.69;5078462;27;46233;-43
2023/10/01 05:25:20;;;;;;;;;23.67;16.67;;;;;16.08;72.57;101989.22;5078371;28;45371;-44
2023/10/01 05:27:46;;;;;;;;;28.33;18.33;;;;;16.08;72.55;101997.25;5078437;27;45335;-43
2023/10/01 05:30:32;;;;;;;;;19.00;12.67;;;;;16.05;72.73;102003.78;5078468;28;45218;-42
2023/10/01 05:32:58;;;;;;;;;18.67;18.33;;;;;16.04;72.92;102002.09;5078028;27;46399;-44
2023/10/01 05:35:24;;;;;;;;;21.00;16.33;;;;;16.01;72.70;101999.69;5078227;27;45233;-43
2023/10/01 05:37:49;;;;;;;;;25.00;16.33;;;;;15.83;73.03;101974.69;5077884;28;45292;-45
2023/10/01 05:40:15;;;;;;;;;24.00;19.67;;;;;16.06;72.94;102012.69;5060240;28;45632;-46
2023/10/01 05:42:41;;;;;;;;;27.00;17.00;;;;;16.06;72.86;102010.00;5077913;28;46083;-45
2023/10/01 05:45:14;;;;;;;;;20.00;15.00;;;;;16.02;72.78;102005.94;5078182;28;45345;-49
2023/10/01 05:47:54;;;;;;;;;20.33;13.33;;;;;15.89;73.03;101992.88;5078046;28;45430;-44
2023/10/01 05:50:22;;;;;;;;;16.67;15.67;;;;;15.96;72.92;102012.72;5077475;28;45365;-45
2023/10/01 05:52:50;;;;;;;;;22.67;16.00;;;;;15.93;73.08;102007.69;5078719;28;45417;-46
2023/10/01 05:55:15;;;;;;;;;20.33;15.00;;;;;16.00;72.96;102019.50;5080042;27;45468;-44
2023/10/01 05:57:44;;;;;;;;;22.33;16.67;;;;;16.02;73.01;102022.88;5079366;28;45422;-42
2023/10/01 06:00:26;;;;;;;;;19.33;14.33;;;;;16.01;72.96;102017.66;5079817;28;45563;-45
2023/10/01 06:03:00;;;;;;;;;19.67;17.00;;;;;16.02;73.08;102016.69;5061041;28;48416;-43
2023/10/01 06:05:43;;;;;;;;;16.67;12.33;;;;;16.00;73.29;102022.19;5079132;28;45506;-43
2023/10/01 06:08:17;;;;;;;;;22.67;19.00;;;;;16.02;73.05;102024.72;5077981;27;45288;-45
2023/10/01 06:10:59;;;;;;;;;20.33;17.67;;;;;16.01;72.83;102020.34;5059756;28;45472;-43
2023/10/01 06:13:29;;;;;;;;;22.00;16.00;;;;;16.01;72.78;102026.53;5077418;28;46018;-45
2023/10/01 06:16:11;;;;;;;;;15.00;15.00;;;;;16.01;72.97;102028.38;5077622;28;45232;-44
2023/10/01 06:18:50;;;;;;;;;19.00;15.67;;;;;16.02;72.94;102025.56;5077294;28;45437;-47
2023/10/01 06:21:23;;;;;;;;;17.33;15.67;;;;;15.89;72.54;102000.94;5077712;28;45429;-45
2023/10/01 06:23:52;;;;;;;;;21.67;18.00;;;;;16.04;73.09;102026.25;5077546;28;45331;-47
2023/10/01 06:26:22;;;;;;;;;22.67;18.33;;;;;16.05;72.97;102024.41;5077186;27;45341;-46
2023/10/01 06:28:48;;;;;;;;;22.33;15.00;;;;;16.07;72.99;102034.00;5077586;27;45291;-43
2023/10/01 06:31:16;;;;;;;;;24.00;17.00;;;;;16.07;72.80;102034.00;5077056;28;45236;-44
2023/10/01 06:33:44;;;;;;;;;19.67;16.33;;;;;16.08;72.88;102030.31;5077218;27;45595;-44
2023/10/01 06:36:16;;;;;;;;;17.67;15.33;;;;;16.08;73.23;102038.38;5077412;28;45400;-46
2023/10/01 06:38:44;;;;;;;;;19.33;17.67;;;;;16.12;73.12;102023.66;5077335;28;45343;-45
2023/10/01 06:41:16;;;;;;;;;20.00;14.00;;;;;16.15;73.09;102028.72;5077454;27;45302;-46
2023/10/01 06:43:48;;;;;;;;;17.67;14.67;;;;;16.10;72.65;102009.56;5076978;28;45661;-44
2023/10/01 06:46:29;;;;;;;;;22.67;18.67;;;;;16.10;72.67;102001.50;5077141;28;45187;-46
2023/10/01 06:48:58;;;;;;;;;23.33;17.33;;;;;16.21;72.73;102017.38;5077062;28;45297;-49
2023/10/01 06:51:26;;;;;;;;;12.00;11.00;;;;;16.23;72.78;102016.41;5077296;28;45371;-45
2023/10/01 06:53:59;;;;;;;;;30.00;19.00;;;;;16.25;73.22;102017.06;5076796;27;47189;-47
2023/10/01 06:56:29;;;;;;;;;27.67;19.33;;;;;16.26;73.36;102018.75;5076799;28;45356;-46
2023/10/01 06:59:13;;;;;;;;;17.67;16.33;;;;;16.27;72.89;102015.09;5076928;28;45306;-46
2023/10/01 07:01:47;;;;;;;;;20.00;13.00;;;;;16.31;72.42;102017.31;5077120;28;45408;-45
2023/10/01 07:04:18;;;;;;;;;20.33;15.00;;;;;16.35;72.78;102016.00;5076412;28;46206;-47
2023/10/01 07:06:44;;;;;;;;;23.33;18.00;;;;;16.38;72.70;102013.00;5076770;28;45258;-46
2023/10/01 07:11:56;;;;;;;;;18.00;15.00;;;;;16.48;73.02;102017.47;5077042;28;45341;-46
2023/10/01 07:14:38;;;;;;;;;18.33;13.67;;;;;16.50;72.94;102016.28;5076601;27;47546;-48
2023/10/01 07:17:09;;;;;;;;;14.33;12.00;;;;;16.58;73.02;102016.38;5076676;27;45442;-49
2023/10/01 07:19:35;;;;;;;;;24.33;17.00;;;;;16.63;72.74;102018.59;5076673;27;45445;-47
2023/10/01 07:22:06;;;;;;;;;20.33;13.00;;;;;16.63;73.39;102016.75;5077028;28;45268;-47
2023/10/01 07:24:35;;;;;;;;;15.67;14.00;;;;;16.65;73.03;102011.22;5076449;28;46507;-46
2023/10/01 07:27:05;;;;;;;;;22.67;14.00;;;;;16.69;72.79;102015.28;5058117;28;45420;-47
2023/10/01 07:29:33;;;;;;;;;18.00;11.67;;;;;16.77;72.58;102023.47;5076623;28;45354;-48
2023/10/01 07:32:01;;;;;;;;;20.00;15.67;;;;;16.83;72.43;102020.13;5076749;28;45356;-46
2023/10/01 07:34:26;;;;;;;;;18.00;15.00;;;;;16.87;72.57;102021.50;5076006;28;47112;-47
2023/10/01 07:36:53;;;;;;;;;19.33;16.00;;;;;16.90;72.20;102021.19;5076398;28;45434;-47
2023/10/01 07:39:21;;;;;;;;;16.00;15.00;;;;;16.94;72.41;102019.88;5076626;28;45220;-47
2023/10/01 07:41:48;;;;;;;;;14.33;13.00;;;;;17.02;72.08;102027.13;5077292;28;45405;-47
2023/10/01 07:44:15;;;;;;;;;21.00;14.00;;;;;16.99;71.92;102007.81;5079934;28;46236;-47
2023/10/01 07:46:42;;;;;;;;;18.00;13.67;;;;;17.14;72.03;102022.34;5079608;28;45336;-48
2023/10/01 07:49:09;;;;;;;;;34.33;27.67;;;;;17.10;71.60;102020.97;5079831;28;45482;-48
2023/10/01 07:51:38;;;;;;;;;48.67;37.33;;;;;17.23;71.42;102029.44;5080113;28;45384;-46
2023/10/01 07:54:11;;;;;;;;;37.67;34.67;;;;;17.34;71.43;102031.03;5079529;28;45433;-48
2023/10/01 07:56:49;;;;;;;;;37.00;29.00;;;;;17.44;71.13;102031.75;5061304;28;45415;-47
2023/10/01 07:59:34;;;;;;;;;29.33;23.33;;;;;17.53;70.89;102035.34;5079852;28;45313;-43
2023/10/01 08:04:57;;;;;;;;;18.00;15.00;;;;;17.73;70.10;102030.56;5079408;28;45570;-44
2023/10/01 08:07:39;;;;;;;;;15.00;13.67;;;;;17.85;69.93;102035.50;5079334;28;45387;-42
2023/10/01 08:10:09;;;;;;;;;19.00;15.00;;;;;18.03;69.63;102042.63;5079830;27;45346;-43
2023/10/01 08:15:29;;;;;;;;;18.00;13.00;;;;;20.32;62.13;102038.53;5079555;28;45799;-47
2023/10/01 08:17:56;;;;;;;;;14.00;13.00;;;;;20.78;60.89;102029.59;5079466;28;45299;-50
2023/10/01 08:20:21;;;;;;;;;16.50;13.50;;;;;21.00;61.05;102026.00;5079396;27;45409;-50
2023/10/01 08:23:12;;;;;;;;;21.25;15.00;;;;;21.30;60.57;102026.03;5079776;28;45347;-48
2023/10/01 08:25:51;;;;;;;;;19.25;16.75;;;;;21.86;59.12;102026.38;5079505;27;45418;-50
2023/10/01 08:30:43;;;;;;;;;16.00;11.75;;;;;22.98;56.10;102034.00;5079513;27;45335;-49
2023/10/01 08:33:18;;;;;;;;;17.75;14.50;;;;;23.49;54.63;102026.38;5079803;27;45331;-50
2023/10/01 08:35:56;;;;;;;;;14.40;12.00;;;;;24.27;52.82;102032.38;5079066;28;45738;-50
2023/10/01 08:38:23;;;;;;;;;21.60;13.20;;;;;25.24;51.58;102038.25;5060531;27;45387;-48
2023/10/01 08:40:53;;;;;;;;;28.75;22.50;;;;;25.93;49.17;102031.34;5076526;28;45514;-51
2023/10/01 08:43:23;;;;;;;;;24.75;23.00;;;;;26.37;49.42;102033.16;5076732;27;45485;-51
2023/10/01 08:45:52;;;;;;;;;23.40;16.40;;;;;26.70;46.83;102022.03;5076404;28;46341;-46
2023/10/01 08:48:18;;;;;;;;;22.00;16.80;;;;;27.04;45.93;102028.03;5075285;27;45375;-49
2023/10/01 08:50:45;;;;;;;;;21.20;14.60;;;;;27.28;45.78;102035.38;5076139;28;45475;-50
2023/10/01 08:53:12;;;;;;;;;21.20;16.40;;;;;27.48;45.59;102037.06;5077399;27;45544;-48
2023/10/01 08:58:25;;;;;;;;;20.80;16.20;;;;;27.80;44.37;102029.53;5059060;28;45352;-46
2023/10/01 09:00:56;;;;;;;;;18.80;14.80;;;;;27.85;43.63;102026.94;5076548;27;45502;-51
2023/10/01 09:03:28;;;;;;;;;19.40;14.80;;;;;27.90;43.35;102023.53;5076232;27;45354;-50
2023/10/01 09:06:03;;;;;;;;;17.20;16.00;;;;;28.14;44.01;102021.72;5075729;27;47113;-48
2023/10/01 09:08:43;;;;;;;;;17.60;15.40;;;;;28.31;43.00;102018.06;5074960;27;45771;-45
2023/10/01 09:11:13;;;;;;;;;19.60;16.60;;;;;28.55;42.07;102013.50;5076274;28;45466;-48
2023/10/01 09:13:45;;;;;;;;;16.00;13.40;;;;;28.59;43.91;102014.72;5076268;28;45321;-47
2023/10/01 09:16:11;;;;;;;;;24.00;15.20;;;;;28.80;42.38;102012.47;5075655;28;46209;-49
2023/10/01 09:18:52;;;;;;;;;15.75;13.50;;;;;29.03;42.01;102022.59;5076233;28;45477;-46
2023/10/01 09:21:28;;;;;;;;;24.20;23.60;;;;;29.24;41.52;102021.16;5059274;28;46334;-48
2023/10/01 09:23:56;;;;;;;;;29.00;21.20;;;;;29.31;41.30;102027.34;5056988;28;45446;-45
2023/10/01 09:26:53;;;;;;;;;15.20;13.40;;;;;29.30;42.73;102025.69;5074158;28;45493;-46
2023/10/01 09:29:23;;;;;;;;;18.20;10.60;;;;;29.28;40.63;102012.22;5075754;27;46440;-47
2023/10/01 09:31:54;;;;;;;;;12.80;10.60;;;;;29.34;42.16;101999.47;5075651;28;45379;-47
2023/10/01 09:34:31;;;;;;;;;15.60;10.20;;;;;29.26;40.80;102013.53;5075609;27;45271;-46
2023/10/01 09:37:00;;;;;;;;;15.00;12.60;;;;;29.08;40.83;102001.66;5074694;28;46381;-45
2023/10/01 09:39:41;;;;;;;;;12.80;11.20;;;;;29.29;40.94;102013.06;5075702;27;45391;-45
2023/10/01 09:42:25;;;;;;;;;15.40;12.60;;;;;29.26;41.65;102017.13;5075763;28;45540;-47
2023/10/01 09:45:09;;;;;;;;;13.40;11.60;;;;;29.35;41.27;102012.09;5056758;28;45691;-43
2023/10/01 09:47:35;;;;;;;;;14.60;10.60;;;;;29.33;40.40;102006.03;5055361;28;46247;-47
2023/10/01 09:50:05;;;;;;;;;9.20;9.00;;;;;29.48;41.13;102009.06;5055236;28;45378;-44
2023/10/01 09:52:48;;;;;;;;;10.20;10.20;;;;;29.58;39.69;101987.41;5055079;28;45783;-47
2023/10/01 09:55:26;;;;;;;;;10.20;9.20;;;;;29.86;39.78;101999.44;5055310;28;45379;-47
2023/10/01 09:57:54;;;;;;;;;10.60;9.60;;;;;30.26;40.16;102007.63;5053500;28;46428;-47
2023/10/01 10:00:21;;;;;;;;;12.40;10.40;;;;;30.41;39.47;102012.53;5055240;28;45512;-45
2023/10/01 10:02:53;;;;;;;;;11.00;10.20;;;;;30.75;38.92;102004.31;5054787;28;45480;-48
2023/10/01 10:05:25;;;;;;;;;16.00;14.80;;;;;31.17;38.53;102006.56;5053850;28;45892;-46
2023/10/01 10:07:55;;;;;;;;;19.20;11.80;;;;;31.47;37.46;101996.00;5053621;28;45418;-45
2023/10/01 10:10:25;;;;;;;;;12.60;9.60;;;;;31.81;37.08;101993.06;5054146;28;45300;-47
2023/10/01 10:12:56;;;;;;;;;11.60;10.60;;;;;32.05;37.05;101999.13;5054609;28;45478;-47
2023/10/01 10:16:00;;;;;;;;;15.80;10.20;;;;;32.32;36.08;101990.00;5054920;28;45252;-44
2023/10/01 10:18:32;;;;;;;;;11.20;11.20;;;;;32.60;35.95;101991.66;5054302;28;47077;-44
2023/10/01 10:21:05;;;;;;;;;9.20;9.20;;;;;32.89;35.30;101990.19;5054407;28;45406;-48
2023/10/01 10:23:55;;;;;;;;;10.20;7.40;;;;;33.24;35.28;101986.81;5054698;28;45951;-47
2023/10/01 10:26:58;;;;;;;;;10.40;10.00;;;;;33.69;34.69;101982.59;5054392;28;45395;-45
2023/10/01 10:29:24;;;;;;;;;11.60;10.40;;;;;33.99;34.18;101981.03;5054646;28;45978;-45
2023/10/01 10:32:10;;;;;;;;;12.00;10.25;;;;;34.20;34.52;101987.41;5054518;28;45393;-47
2023/10/01 10:34:36;;;;;;;;;9.60;9.60;;;;;34.50;36.31;101981.06;5051167;28;45413;-48
2023/10/01 10:37:06;;;;;;;;;14.20;8.80;;;;;34.75;32.85;101983.78;5074787;28;45500;-46
2023/10/01 10:39:48;;;;;;;;;11.80;10.00;;;;;34.80;33.01;101973.81;5074813;28;47074;-47
2023/10/01 10:42:29;;;;;;;;;14.20;10.80;;;;;34.91;32.00;101969.94;5074370;28;45303;-44
2023/10/01 10:45:26;;;;;;;;;8.80;7.80;;;;;35.40;32.03;101961.75;5074539;28;45628;-47
2023/10/01 10:48:05;;;;;;;;;12.20;11.80;;;;;35.83;31.18;101942.69;5041106;28;45436;-47
2023/10/01 10:50:50;;;;;;;;;16.20;12.60;;;;;36.58;29.65;101950.66;5054037;28;46217;-48
2023/10/01 10:53:21;;;;;;;;;11.00;9.80;;;;;37.38;29.63;101951.94;5053474;28;45447;-46
2023/10/01 10:56:16;;;;;;;;;12.60;9.00;;;;;38.43;27.73;101953.41;5053920;28;45550;-47
2023/10/01 10:58:53;;;;;;;;;10.40;10.00;;;;;39.59;26.08;101959.63;4972304;28;45607;-47
2023/10/01 11:01:19;;;;;;;;;11.80;10.60;;;;;41.03;24.98;101954.00;4969715;28;45489;-43
2023/10/01 11:03:59;;;;;;;;;12.60;11.40;;;;;42.50;23.11;101948.38;4972255;28;45500;-46
2023/10/01 11:06:42;;;;;;;;;13.60;9.40;;;;;43.90;21.82;101948.34;4972013;28;45588;-46
2023/10/01 11:09:30;;;;;;;;;10.00;8.60;;;;;44.67;21.27;101941.06;4972344;28;45786;-46
2023/10/01 11:12:00;;;;;;;;;10.40;6.60;;;;;44.98;20.87;101946.06;4971829;28;46729;-46
2023/10/01 11:14:26;;;;;;;;;15.00;10.60;;;;;45.46;20.46;101935.94;4972062;28;45604;-45
2023/10/01 11:16:51;;;;;;;;;13.75;11.25;;;;;45.92;19.68;101939.25;4956810;28;45895;-45
2023/10/01 11:19:25;;;;;;;;;13.00;9.75;;;;;46.31;19.32;101945.13;4975685;28;45579;-45
2023/10/01 11:21:56;;;;;;;;;9.40;9.20;;;;;47.24;18.38;101936.13;4975166;28;46206;-46
2023/10/01 11:24:36;;;;;;;;;13.00;10.80;;;;;47.60;18.08;101939.72;4975641;28;45373;-46
2023/10/01 11:27:11;;;;;;;;;11.60;11.00;;;;;48.24;17.60;101949.44;4975363;28;45589;-46
2023/10/01 11:29:39;;;;;;;;;12.20;11.80;;;;;48.63;17.35;101940.81;4975823;28;45409;-46
2023/10/01 11:32:05;;;;;;;;;10.40;9.60;;;;;49.11;16.55;101932.69;4975916;28;45384;-45
2023/10/01 11:35:00;;;;;;;;;9.40;8.80;;;;;49.37;16.93;101937.47;4995906;28;45451;-44
2023/10/01 11:37:27;;;;;;;;;18.20;12.00;;;;;49.21;15.70;101938.47;4975015;28;45588;-47
2023/10/01 11:39:54;;;;;;;;;9.40;9.00;;;;;49.19;16.00;101926.75;4975471;28;45447;-44
2023/10/01 11:42:38;;;;;;;;;14.00;10.40;;;;;49.42;16.45;101931.47;4975435;28;47572;-44
2023/10/01 11:45:29;;;;;;;;;11.80;11.80;;;;;49.50;15.32;101926.75;4975482;28;45348;-47
2023/10/01 11:48:19;;;;;;;;;10.00;8.00;;;;;49.34;16.71;101921.28;4975098;28;45536;-44
2023/10/01 11:50:50;;;;;;;;;10.20;9.40;;;;;49.54;16.09;101917.09;4975170;28;45449;-43
2023/10/01 11:53:16;;;;;;;;;12.60;10.80;;;;;49.76;15.06;101911.66;4974837;28;46142;-45
2023/10/01 11:55:42;;;;;;;;;11.40;10.00;;;;;49.85;15.69;101907.34;4974982;28;45783;-44
2023/10/01 11:58:07;;;;;;;;;7.75;7.75;;;;;49.84;15.25;101921.88;4975216;28;45496;-42
2023/10/01 12:00:52;;;;;;;;;13.00;9.25;;;;;49.57;15.94;101912.69;4975344;28;45391;-43
2023/10/01 12:03:18;;;;;;;;;13.40;11.60;;;;;49.62;14.94;101921.63;4974638;28;47443;-46